sensor_id;sensor_type;location;lat;lon;timestamp;P1;durP1;ratioP1;P2;durP2;ratioP2
81908;SDS011;71372;43.514;1.512;2023-08-12T00:01:37;9.73;;;4.07;;
81908;SDS011;71372;43.514;1.512;2023-08-12T00:04:04;8.77;;;4.25;;
81908;SDS011;71372;43.514;1.512;2023-08-12T00:06:30;8.38;;;4.22;;
81908;SDS011;71372;43.514;1.512;2023-08-12T00:08:56;11.02;;;4.80;;
81908;SDS011;71372;43.514;1.512;2023-08-12T00:11:22;11.30;;;4.25;;
81908;SDS011;71372;43.514;1.512;2023-08-12T00:13:48;9.82;;;4.43;;
81908;SDS011;71372;43.514;1.512;2023-08-12T00:16:13;9.15;;;4.43;;
81908;SDS011;71372;43.514;1.512;2023-08-12T00:18:39;9.70;;;4.35;;
81908;SDS011;71372;43.514;1.512;2023-08-12T00:21:08;8.65;;;4.43;;
81908;SDS011;71372;43.514;1.512;2023-08-12T00:23:39;8.48;;;4.75;;
81908;SDS011;71372;43.514;1.512;2023-08-12T00:26:09;11.10;;;4.32;;
81908;SDS011;71372;43.514;1.512;2023-08-12T00:28:36;7.40;;;4.38;;
81908;SDS011;71372;43.514;1.512;2023-08-12T00:31:02;7.60;;;4.07;;
81908;SDS011;71372;43.514;1.512;2023-08-12T00:33:28;9.27;;;4.22;;
81908;SDS011;71372;43.514;1.512;2023-08-12T00:35:54;9.25;;;4.47;;
81908;SDS011;71372;43.514;1.512;2023-08-12T00:38:20;8.60;;;4.57;;
81908;SDS011;71372;43.514;1.512;2023-08-12T00:40:46;9.55;;;5.05;;
81908;SDS011;71372;43.514;1.512;2023-08-12T00:43:12;10.63;;;4.68;;
81908;SDS011;71372;43.514;1.512;2023-08-12T00:45:38;8.00;;;4.20;;
81908;SDS011;71372;43.514;1.512;2023-08-12T00:48:04;11.25;;;4.80;;
81908;SDS011;71372;43.514;1.512;2023-08-12T00:50:32;12.35;;;4.75;;
81908;SDS011;71372;43.514;1.512;2023-08-12T00:52:58;8.95;;;4.20;;
81908;SDS011;71372;43.514;1.512;2023-08-12T00:55:25;6.80;;;4.20;;
81908;SDS011;71372;43.514;1.512;2023-08-12T00:57:51;9.35;;;4.40;;
81908;SDS011;71372;43.514;1.512;2023-08-12T01:00:17;8.90;;;4.68;;
81908;SDS011;71372;43.514;1.512;2023-08-12T01:02:46;11.45;;;4.90;;
81908;SDS011;71372;43.514;1.512;2023-08-12T01:05:14;9.73;;;4.22;;
81908;SDS011;71372;43.514;1.512;2023-08-12T01:10:08;9.38;;;4.53;;
81908;SDS011;71372;43.514;1.512;2023-08-12T01:15:33;8.02;;;4.00;;
81908;SDS011;71372;43.514;1.512;2023-08-12T01:18:00;8.32;;;4.20;;
81908;SDS011;71372;43.514;1.512;2023-08-12T01:20:26;9.60;;;4.75;;
81908;SDS011;71372;43.514;1.512;2023-08-12T01:22:56;7.45;;;4.30;;
81908;SDS011;71372;43.514;1.512;2023-08-12T01:25:24;7.95;;;4.18;;
81908;SDS011;71372;43.514;1.512;2023-08-12T01:27:51;9.18;;;4.50;;
81908;SDS011;71372;43.514;1.512;2023-08-12T01:30:17;9.60;;;4.50;;
81908;SDS011;71372;43.514;1.512;2023-08-12T01:32:51;7.75;;;4.63;;
81908;SDS011;71372;43.514;1.512;2023-08-12T01:35:25;8.95;;;5.05;;
81908;SDS011;71372;43.514;1.512;2023-08-12T01:37:54;7.95;;;4.47;;
81908;SDS011;71372;43.514;1.512;2023-08-12T01:40:23;8.27;;;4.88;;
81908;SDS011;71372;43.514;1.512;2023-08-12T01:42:50;12.05;;;4.70;;
81908;SDS011;71372;43.514;1.512;2023-08-12T01:45:17;12.35;;;4.90;;
81908;SDS011;71372;43.514;1.512;2023-08-12T01:47:44;9.75;;;4.30;;
81908;SDS011;71372;43.514;1.512;2023-08-12T01:50:10;12.85;;;4.70;;
81908;SDS011;71372;43.514;1.512;2023-08-12T01:52:36;9.05;;;4.53;;
81908;SDS011;71372;43.514;1.512;2023-08-12T01:55:03;9.18;;;4.68;;
81908;SDS011;71372;43.514;1.512;2023-08-12T01:57:29;7.43;;;4.40;;
81908;SDS011;71372;43.514;1.512;2023-08-12T01:59:55;8.43;;;4.32;;
81908;SDS011;71372;43.514;1.512;2023-08-12T02:02:21;9.35;;;4.43;;
81908;SDS011;71372;43.514;1.512;2023-08-12T02:04:48;10.23;;;4.45;;
81908;SDS011;71372;43.514;1.512;2023-08-12T02:07:14;13.10;;;5.07;;
81908;SDS011;71372;43.514;1.512;2023-08-12T02:09:40;8.02;;;4.45;;
81908;SDS011;71372;43.514;1.512;2023-08-12T02:12:06;10.77;;;4.93;;
81908;SDS011;71372;43.514;1.512;2023-08-12T02:14:32;6.82;;;4.72;;
81908;SDS011;71372;43.514;1.512;2023-08-12T02:16:58;6.35;;;4.22;;
81908;SDS011;71372;43.514;1.512;2023-08-12T02:19:24;11.63;;;4.90;;
81908;SDS011;71372;43.514;1.512;2023-08-12T02:21:50;6.75;;;4.22;;
81908;SDS011;71372;43.514;1.512;2023-08-12T02:24:16;10.60;;;4.90;;
81908;SDS011;71372;43.514;1.512;2023-08-12T02:26:42;8.45;;;4.88;;
81908;SDS011;71372;43.514;1.512;2023-08-12T02:29:08;10.95;;;4.82;;
81908;SDS011;71372;43.514;1.512;2023-08-12T02:31:34;9.32;;;4.68;;
81908;SDS011;71372;43.514;1.512;2023-08-12T02:34:00;9.45;;;4.80;;
81908;SDS011;71372;43.514;1.512;2023-08-12T02:36:26;8.63;;;4.53;;
81908;SDS011;71372;43.514;1.512;2023-08-12T02:38:52;8.43;;;4.70;;
81908;SDS011;71372;43.514;1.512;2023-08-12T02:41:18;7.50;;;5.15;;
81908;SDS011;71372;43.514;1.512;2023-08-12T02:43:44;9.18;;;4.72;;
81908;SDS011;71372;43.514;1.512;2023-08-12T02:46:10;8.10;;;4.82;;
81908;SDS011;71372;43.514;1.512;2023-08-12T02:48:36;13.10;;;5.07;;
81908;SDS011;71372;43.514;1.512;2023-08-12T02:51:02;8.38;;;4.60;;
81908;SDS011;71372;43.514;1.512;2023-08-12T02:53:28;11.15;;;4.90;;
81908;SDS011;71372;43.514;1.512;2023-08-12T02:55:54;10.57;;;4.43;;
81908;SDS011;71372;43.514;1.512;2023-08-12T02:58:20;9.90;;;4.70;;
81908;SDS011;71372;43.514;1.512;2023-08-12T03:00:46;8.88;;;4.68;;
81908;SDS011;71372;43.514;1.512;2023-08-12T03:03:12;8.98;;;4.97;;
81908;SDS011;71372;43.514;1.512;2023-08-12T03:05:38;7.10;;;4.43;;
81908;SDS011;71372;43.514;1.512;2023-08-12T03:08:04;8.38;;;4.60;;
81908;SDS011;71372;43.514;1.512;2023-08-12T03:10:30;8.40;;;4.72;;
81908;SDS011;71372;43.514;1.512;2023-08-12T03:12:56;8.43;;;4.75;;
81908;SDS011;71372;43.514;1.512;2023-08-12T03:15:22;10.15;;;4.75;;
81908;SDS011;71372;43.514;1.512;2023-08-12T03:17:48;9.10;;;4.55;;
81908;SDS011;71372;43.514;1.512;2023-08-12T03:20:14;9.65;;;4.57;;
81908;SDS011;71372;43.514;1.512;2023-08-12T03:22:40;8.85;;;4.75;;
81908;SDS011;71372;43.514;1.512;2023-08-12T03:25:06;7.90;;;4.57;;
81908;SDS011;71372;43.514;1.512;2023-08-12T03:27:33;10.85;;;4.45;;
81908;SDS011;71372;43.514;1.512;2023-08-12T03:29:59;9.25;;;5.00;;
81908;SDS011;71372;43.514;1.512;2023-08-12T03:32:25;11.63;;;4.95;;
81908;SDS011;71372;43.514;1.512;2023-08-12T03:34:51;9.10;;;4.68;;
81908;SDS011;71372;43.514;1.512;2023-08-12T03:37:18;9.38;;;4.93;;
81908;SDS011;71372;43.514;1.512;2023-08-12T03:39:44;11.90;;;4.97;;
81908;SDS011;71372;43.514;1.512;2023-08-12T03:42:10;9.45;;;4.95;;
81908;SDS011;71372;43.514;1.512;2023-08-12T03:44:36;9.77;;;4.30;;
81908;SDS011;71372;43.514;1.512;2023-08-12T03:47:02;7.32;;;4.85;;
81908;SDS011;71372;43.514;1.512;2023-08-12T03:49:28;8.32;;;4.90;;
81908;SDS011;71372;43.514;1.512;2023-08-12T03:51:54;9.48;;;4.63;;
81908;SDS011;71372;43.514;1.512;2023-08-12T03:54:20;6.65;;;4.47;;
81908;SDS011;71372;43.514;1.512;2023-08-12T03:56:46;10.50;;;5.65;;
81908;SDS011;71372;43.514;1.512;2023-08-12T03:59:12;9.38;;;4.78;;
81908;SDS011;71372;43.514;1.512;2023-08-12T04:01:38;9.00;;;5.40;;
81908;SDS011;71372;43.514;1.512;2023-08-12T04:04:04;6.35;;;4.78;;
81908;SDS011;71372;43.514;1.512;2023-08-12T04:06:30;7.20;;;4.72;;
81908;SDS011;71372;43.514;1.512;2023-08-12T04:08:56;9.40;;;4.78;;
81908;SDS011;71372;43.514;1.512;2023-08-12T04:11:22;9.57;;;4.88;;
81908;SDS011;71372;43.514;1.512;2023-08-12T04:13:48;9.25;;;5.43;;
81908;SDS011;71372;43.514;1.512;2023-08-12T04:16:14;11.40;;;5.75;;
81908;SDS011;71372;43.514;1.512;2023-08-12T04:18:40;9.73;;;5.07;;
81908;SDS011;71372;43.514;1.512;2023-08-12T04:21:06;7.82;;;4.72;;
81908;SDS011;71372;43.514;1.512;2023-08-12T04:23:32;12.45;;;6.00;;
81908;SDS011;71372;43.514;1.512;2023-08-12T04:25:58;6.65;;;5.07;;
81908;SDS011;71372;43.514;1.512;2023-08-12T04:28:24;10.02;;;4.70;;
81908;SDS011;71372;43.514;1.512;2023-08-12T04:30:51;8.10;;;4.95;;
81908;SDS011;71372;43.514;1.512;2023-08-12T04:33:18;7.82;;;4.78;;
81908;SDS011;71372;43.514;1.512;2023-08-12T04:35:45;7.53;;;5.35;;
81908;SDS011;71372;43.514;1.512;2023-08-12T04:38:11;8.57;;;4.50;;
81908;SDS011;71372;43.514;1.512;2023-08-12T04:40:41;8.00;;;4.90;;
81908;SDS011;71372;43.514;1.512;2023-08-12T04:43:08;10.73;;;5.57;;
81908;SDS011;71372;43.514;1.512;2023-08-12T04:45:35;10.25;;;5.35;;
81908;SDS011;71372;43.514;1.512;2023-08-12T04:48:01;7.45;;;4.60;;
81908;SDS011;71372;43.514;1.512;2023-08-12T04:50:30;10.68;;;5.20;;
81908;SDS011;71372;43.514;1.512;2023-08-12T04:52:56;8.90;;;5.30;;
81908;SDS011;71372;43.514;1.512;2023-08-12T04:55:24;10.38;;;4.65;;
81908;SDS011;71372;43.514;1.512;2023-08-12T04:57:51;10.07;;;5.35;;
81908;SDS011;71372;43.514;1.512;2023-08-12T05:00:17;6.85;;;4.63;;
81908;SDS011;71372;43.514;1.512;2023-08-12T05:02:43;10.05;;;5.43;;
81908;SDS011;71372;43.514;1.512;2023-08-12T05:05:09;10.02;;;5.30;;
81908;SDS011;71372;43.514;1.512;2023-08-12T05:07:35;11.25;;;5.53;;
81908;SDS011;71372;43.514;1.512;2023-08-12T05:10:01;10.75;;;5.30;;
81908;SDS011;71372;43.514;1.512;2023-08-12T05:12:28;10.43;;;5.35;;
81908;SDS011;71372;43.514;1.512;2023-08-12T05:14:54;7.68;;;5.03;;
81908;SDS011;71372;43.514;1.512;2023-08-12T05:17:20;14.23;;;5.97;;
81908;SDS011;71372;43.514;1.512;2023-08-12T05:19:46;7.93;;;5.43;;
81908;SDS011;71372;43.514;1.512;2023-08-12T05:22:13;8.50;;;5.20;;
81908;SDS011;71372;43.514;1.512;2023-08-12T05:24:39;9.38;;;5.57;;
81908;SDS011;71372;43.514;1.512;2023-08-12T05:27:05;9.90;;;5.38;;
81908;SDS011;71372;43.514;1.512;2023-08-12T05:29:30;9.00;;;5.40;;
81908;SDS011;71372;43.514;1.512;2023-08-12T05:31:56;9.75;;;5.53;;
81908;SDS011;71372;43.514;1.512;2023-08-12T05:34:22;10.68;;;5.53;;
81908;SDS011;71372;43.514;1.512;2023-08-12T05:36:48;8.93;;;5.47;;
81908;SDS011;71372;43.514;1.512;2023-08-12T05:39:14;9.68;;;5.38;;
81908;SDS011;71372;43.514;1.512;2023-08-12T05:41:43;7.72;;;5.40;;
81908;SDS011;71372;43.514;1.512;2023-08-12T05:44:10;10.98;;;5.38;;
81908;SDS011;71372;43.514;1.512;2023-08-12T05:46:36;8.63;;;5.45;;
81908;SDS011;71372;43.514;1.512;2023-08-12T05:49:02;9.35;;;5.18;;
81908;SDS011;71372;43.514;1.512;2023-08-12T05:51:28;11.95;;;5.63;;
81908;SDS011;71372;43.514;1.512;2023-08-12T05:53:54;9.82;;;4.95;;
81908;SDS011;71372;43.514;1.512;2023-08-12T05:56:20;10.48;;;5.30;;
81908;SDS011;71372;43.514;1.512;2023-08-12T05:58:46;10.00;;;5.38;;
81908;SDS011;71372;43.514;1.512;2023-08-12T06:01:12;8.27;;;5.30;;
81908;SDS011;71372;43.514;1.512;2023-08-12T06:03:38;8.00;;;5.30;;
81908;SDS011;71372;43.514;1.512;2023-08-12T06:06:04;6.22;;;4.43;;
81908;SDS011;71372;43.514;1.512;2023-08-12T06:08:30;11.15;;;5.32;;
81908;SDS011;71372;43.514;1.512;2023-08-12T06:10:56;11.50;;;5.40;;
81908;SDS011;71372;43.514;1.512;2023-08-12T06:13:22;8.82;;;4.60;;
81908;SDS011;71372;43.514;1.512;2023-08-12T06:15:48;6.97;;;4.85;;
81908;SDS011;71372;43.514;1.512;2023-08-12T06:18:14;8.55;;;4.47;;
81908;SDS011;71372;43.514;1.512;2023-08-12T06:20:40;8.88;;;4.82;;
81908;SDS011;71372;43.514;1.512;2023-08-12T06:23:06;9.88;;;4.65;;
81908;SDS011;71372;43.514;1.512;2023-08-12T06:25:32;9.27;;;4.72;;
81908;SDS011;71372;43.514;1.512;2023-08-12T06:27:58;7.10;;;4.53;;
81908;SDS011;71372;43.514;1.512;2023-08-12T06:30:24;7.88;;;4.43;;
81908;SDS011;71372;43.514;1.512;2023-08-12T06:32:50;10.15;;;4.50;;
81908;SDS011;71372;43.514;1.512;2023-08-12T06:35:16;8.55;;;4.80;;
81908;SDS011;71372;43.514;1.512;2023-08-12T06:37:42;8.05;;;4.78;;
81908;SDS011;71372;43.514;1.512;2023-08-12T06:40:08;10.07;;;4.90;;
81908;SDS011;71372;43.514;1.512;2023-08-12T06:42:34;10.25;;;4.82;;
81908;SDS011;71372;43.514;1.512;2023-08-12T06:45:00;7.50;;;4.80;;
81908;SDS011;71372;43.514;1.512;2023-08-12T06:47:29;9.73;;;4.82;;
81908;SDS011;71372;43.514;1.512;2023-08-12T06:49:55;7.30;;;4.47;;
81908;SDS011;71372;43.514;1.512;2023-08-12T06:52:21;8.70;;;4.55;;
81908;SDS011;71372;43.514;1.512;2023-08-12T06:54:47;9.63;;;4.80;;
81908;SDS011;71372;43.514;1.512;2023-08-12T06:57:13;9.05;;;5.25;;
81908;SDS011;71372;43.514;1.512;2023-08-12T06:59:39;9.98;;;4.90;;
81908;SDS011;71372;43.514;1.512;2023-08-12T07:02:06;8.77;;;4.53;;
81908;SDS011;71372;43.514;1.512;2023-08-12T07:04:32;8.20;;;4.72;;
81908;SDS011;71372;43.514;1.512;2023-08-12T07:06:58;9.52;;;4.90;;
81908;SDS011;71372;43.514;1.512;2023-08-12T07:09:25;7.43;;;5.10;;
81908;SDS011;71372;43.514;1.512;2023-08-12T07:11:51;6.25;;;4.80;;
81908;SDS011;71372;43.514;1.512;2023-08-12T07:14:17;11.30;;;4.72;;
81908;SDS011;71372;43.514;1.512;2023-08-12T07:16:43;10.23;;;5.25;;
81908;SDS011;71372;43.514;1.512;2023-08-12T07:19:09;10.10;;;5.10;;
81908;SDS011;71372;43.514;1.512;2023-08-12T07:21:34;12.35;;;5.60;;
81908;SDS011;71372;43.514;1.512;2023-08-12T07:24:00;10.50;;;5.57;;
81908;SDS011;71372;43.514;1.512;2023-08-12T07:26:26;8.88;;;5.65;;
81908;SDS011;71372;43.514;1.512;2023-08-12T07:28:52;10.15;;;5.68;;
81908;SDS011;71372;43.514;1.512;2023-08-12T07:31:18;10.70;;;5.45;;
81908;SDS011;71372;43.514;1.512;2023-08-12T07:33:44;12.18;;;5.53;;
81908;SDS011;71372;43.514;1.512;2023-08-12T07:36:10;11.10;;;5.75;;
81908;SDS011;71372;43.514;1.512;2023-08-12T07:38:36;9.80;;;6.10;;
81908;SDS011;71372;43.514;1.512;2023-08-12T07:41:02;9.82;;;5.78;;
81908;SDS011;71372;43.514;1.512;2023-08-12T07:43:28;12.32;;;5.97;;
81908;SDS011;71372;43.514;1.512;2023-08-12T07:45:54;10.73;;;5.68;;
81908;SDS011;71372;43.514;1.512;2023-08-12T07:48:21;9.82;;;5.70;;
81908;SDS011;71372;43.514;1.512;2023-08-12T07:50:47;12.00;;;6.07;;
81908;SDS011;71372;43.514;1.512;2023-08-12T07:53:20;12.40;;;6.50;;
81908;SDS011;71372;43.514;1.512;2023-08-12T07:55:46;10.85;;;6.00;;
81908;SDS011;71372;43.514;1.512;2023-08-12T07:58:12;10.20;;;5.60;;
81908;SDS011;71372;43.514;1.512;2023-08-12T08:00:38;14.23;;;6.25;;
81908;SDS011;71372;43.514;1.512;2023-08-12T08:03:04;10.10;;;6.47;;
81908;SDS011;71372;43.514;1.512;2023-08-12T08:05:30;12.07;;;6.13;;
81908;SDS011;71372;43.514;1.512;2023-08-12T08:07:56;11.27;;;6.20;;
81908;SDS011;71372;43.514;1.512;2023-08-12T08:10:22;11.27;;;6.15;;
81908;SDS011;71372;43.514;1.512;2023-08-12T08:12:48;11.38;;;6.03;;
81908;SDS011;71372;43.514;1.512;2023-08-12T08:15:15;11.05;;;5.90;;
81908;SDS011;71372;43.514;1.512;2023-08-12T08:17:41;11.18;;;6.05;;
81908;SDS011;71372;43.514;1.512;2023-08-12T08:20:07;11.93;;;6.22;;
81908;SDS011;71372;43.514;1.512;2023-08-12T08:22:33;10.60;;;6.10;;
81908;SDS011;71372;43.514;1.512;2023-08-12T08:24:59;12.75;;;6.30;;
81908;SDS011;71372;43.514;1.512;2023-08-12T08:27:25;11.60;;;6.22;;
81908;SDS011;71372;43.514;1.512;2023-08-12T08:29:51;10.80;;;5.97;;
81908;SDS011;71372;43.514;1.512;2023-08-12T08:32:17;11.63;;;6.28;;
81908;SDS011;71372;43.514;1.512;2023-08-12T08:34:44;16.55;;;6.20;;
81908;SDS011;71372;43.514;1.512;2023-08-12T08:37:10;11.85;;;5.90;;
81908;SDS011;71372;43.514;1.512;2023-08-12T08:39:36;15.68;;;5.72;;
81908;SDS011;71372;43.514;1.512;2023-08-12T08:42:02;11.48;;;5.93;;
81908;SDS011;71372;43.514;1.512;2023-08-12T08:44:35;12.80;;;6.32;;
81908;SDS011;71372;43.514;1.512;2023-08-12T08:47:08;12.30;;;5.68;;
81908;SDS011;71372;43.514;1.512;2023-08-12T08:49:34;13.10;;;6.18;;
81908;SDS011;71372;43.514;1.512;2023-08-12T08:52:02;9.90;;;5.82;;
81908;SDS011;71372;43.514;1.512;2023-08-12T08:54:28;12.23;;;5.72;;
81908;SDS011;71372;43.514;1.512;2023-08-12T08:56:54;11.70;;;5.78;;
81908;SDS011;71372;43.514;1.512;2023-08-12T08:59:21;9.05;;;5.40;;
81908;SDS011;71372;43.514;1.512;2023-08-12T09:01:47;10.65;;;5.47;;
81908;SDS011;71372;43.514;1.512;2023-08-12T09:04:16;12.15;;;5.60;;
81908;SDS011;71372;43.514;1.512;2023-08-12T09:06:44;9.70;;;5.78;;
81908;SDS011;71372;43.514;1.512;2023-08-12T09:09:12;10.98;;;5.22;;
81908;SDS011;71372;43.514;1.512;2023-08-12T09:11:41;10.60;;;5.47;;
81908;SDS011;71372;43.514;1.512;2023-08-12T09:14:09;9.95;;;5.50;;
81908;SDS011;71372;43.514;1.512;2023-08-12T09:16:36;10.32;;;6.00;;
81908;SDS011;71372;43.514;1.512;2023-08-12T09:19:02;9.40;;;5.47;;
81908;SDS011;71372;43.514;1.512;2023-08-12T09:21:28;12.52;;;6.00;;
81908;SDS011;71372;43.514;1.512;2023-08-12T09:23:55;9.02;;;5.63;;
81908;SDS011;71372;43.514;1.512;2023-08-12T09:26:21;11.88;;;5.20;;
81908;SDS011;71372;43.514;1.512;2023-08-12T09:28:47;9.65;;;5.45;;
81908;SDS011;71372;43.514;1.512;2023-08-12T09:31:24;11.55;;;5.53;;
81908;SDS011;71372;43.514;1.512;2023-08-12T09:33:52;9.15;;;5.40;;
81908;SDS011;71372;43.514;1.512;2023-08-12T09:36:18;9.90;;;5.88;;
81908;SDS011;71372;43.514;1.512;2023-08-12T09:38:46;9.95;;;5.30;;
81908;SDS011;71372;43.514;1.512;2023-08-12T09:41:13;7.63;;;4.82;;
81908;SDS011;71372;43.514;1.512;2023-08-12T09:43:42;9.20;;;5.18;;
81908;SDS011;71372;43.514;1.512;2023-08-12T09:46:12;10.35;;;4.93;;
81908;SDS011;71372;43.514;1.512;2023-08-12T09:48:42;12.73;;;5.47;;
81908;SDS011;71372;43.514;1.512;2023-08-12T09:51:08;8.63;;;5.45;;
81908;SDS011;71372;43.514;1.512;2023-08-12T09:53:35;8.55;;;4.82;;
81908;SDS011;71372;43.514;1.512;2023-08-12T09:56:05;10.85;;;5.13;;
81908;SDS011;71372;43.514;1.512;2023-08-12T09:58:33;11.70;;;4.88;;
81908;SDS011;71372;43.514;1.512;2023-08-12T10:01:05;8.18;;;5.50;;
81908;SDS011;71372;43.514;1.512;2023-08-12T10:03:33;10.10;;;5.95;;
81908;SDS011;71372;43.514;1.512;2023-08-12T10:06:01;10.80;;;6.15;;
81908;SDS011;71372;43.514;1.512;2023-08-12T10:08:28;10.13;;;5.80;;
81908;SDS011;71372;43.514;1.512;2023-08-12T10:10:55;7.50;;;5.63;;
81908;SDS011;71372;43.514;1.512;2023-08-12T10:13:21;10.95;;;5.88;;
81908;SDS011;71372;43.514;1.512;2023-08-12T10:15:48;8.10;;;5.72;;
81908;SDS011;71372;43.514;1.512;2023-08-12T10:18:15;8.45;;;5.35;;
81908;SDS011;71372;43.514;1.512;2023-08-12T10:20:42;11.63;;;6.03;;
81908;SDS011;71372;43.514;1.512;2023-08-12T10:23:15;14.68;;;6.35;;
81908;SDS011;71372;43.514;1.512;2023-08-12T10:25:43;12.85;;;5.97;;
81908;SDS011;71372;43.514;1.512;2023-08-12T10:28:13;11.50;;;5.80;;
81908;SDS011;71372;43.514;1.512;2023-08-12T10:30:39;10.15;;;5.75;;
81908;SDS011;71372;43.514;1.512;2023-08-12T10:33:08;11.70;;;6.32;;
81908;SDS011;71372;43.514;1.512;2023-08-12T10:35:45;9.40;;;5.63;;
81908;SDS011;71372;43.514;1.512;2023-08-12T10:38:19;10.43;;;6.00;;
81908;SDS011;71372;43.514;1.512;2023-08-12T10:40:46;11.43;;;5.50;;
81908;SDS011;71372;43.514;1.512;2023-08-12T10:43:13;7.68;;;5.47;;
81908;SDS011;71372;43.514;1.512;2023-08-12T10:45:51;9.85;;;5.47;;
81908;SDS011;71372;43.514;1.512;2023-08-12T10:50:52;10.18;;;5.32;;
81908;SDS011;71372;43.514;1.512;2023-08-12T10:55:54;9.82;;;5.35;;
81908;SDS011;71372;43.514;1.512;2023-08-12T10:58:27;7.55;;;5.22;;
81908;SDS011;71372;43.514;1.512;2023-08-12T11:01:01;12.65;;;5.93;;
81908;SDS011;71372;43.514;1.512;2023-08-12T11:03:31;10.63;;;5.32;;
81908;SDS011;71372;43.514;1.512;2023-08-12T11:05:59;9.35;;;5.05;;
81908;SDS011;71372;43.514;1.512;2023-08-12T11:08:28;11.05;;;5.63;;
81908;SDS011;71372;43.514;1.512;2023-08-12T11:10:55;8.30;;;5.18;;
81908;SDS011;71372;43.514;1.512;2023-08-12T11:13:22;9.90;;;5.32;;
81908;SDS011;71372;43.514;1.512;2023-08-12T11:15:48;7.22;;;4.65;;
81908;SDS011;71372;43.514;1.512;2023-08-12T11:18:16;8.48;;;5.03;;
81908;SDS011;71372;43.514;1.512;2023-08-12T11:20:44;7.80;;;4.55;;
81908;SDS011;71372;43.514;1.512;2023-08-12T11:23:12;9.55;;;4.57;;
81908;SDS011;71372;43.514;1.512;2023-08-12T11:25:38;7.80;;;4.72;;
81908;SDS011;71372;43.514;1.512;2023-08-12T11:28:06;8.55;;;5.07;;
81908;SDS011;71372;43.514;1.512;2023-08-12T11:30:33;10.10;;;5.00;;
81908;SDS011;71372;43.514;1.512;2023-08-12T11:33:00;9.55;;;4.93;;
81908;SDS011;71372;43.514;1.512;2023-08-12T11:35:27;10.52;;;4.93;;
81908;SDS011;71372;43.514;1.512;2023-08-12T11:37:56;9.45;;;5.30;;
81908;SDS011;71372;43.514;1.512;2023-08-12T11:40:24;8.85;;;5.10;;
81908;SDS011;71372;43.514;1.512;2023-08-12T11:42:51;10.50;;;4.70;;
81908;SDS011;71372;43.514;1.512;2023-08-12T11:45:19;9.07;;;5.50;;
81908;SDS011;71372;43.514;1.512;2023-08-12T11:47:47;10.23;;;5.47;;
81908;SDS011;71372;43.514;1.512;2023-08-12T11:50:18;11.02;;;5.15;;
81908;SDS011;71372;43.514;1.512;2023-08-12T11:52:46;11.00;;;5.88;;
81908;SDS011;71372;43.514;1.512;2023-08-12T11:55:12;8.07;;;5.40;;
81908;SDS011;71372;43.514;1.512;2023-08-12T11:57:39;9.98;;;5.25;;
81908;SDS011;71372;43.514;1.512;2023-08-12T12:00:08;9.27;;;5.00;;
81908;SDS011;71372;43.514;1.512;2023-08-12T12:02:54;8.00;;;4.82;;
81908;SDS011;71372;43.514;1.512;2023-08-12T12:05:21;11.00;;;5.32;;
81908;SDS011;71372;43.514;1.512;2023-08-12T12:07:49;8.00;;;4.97;;
81908;SDS011;71372;43.514;1.512;2023-08-12T12:10:49;10.10;;;4.85;;
81908;SDS011;71372;43.514;1.512;2023-08-12T12:13:07;9.68;;;4.88;;
81908;SDS011;71372;43.514;1.512;2023-08-12T12:15:42;8.77;;;4.47;;
81908;SDS011;71372;43.514;1.512;2023-08-12T12:18:12;8.85;;;4.95;;
81908;SDS011;71372;43.514;1.512;2023-08-12T12:20:53;8.13;;;4.40;;
81908;SDS011;71372;43.514;1.512;2023-08-12T12:23:26;10.48;;;5.00;;
81908;SDS011;71372;43.514;1.512;2023-08-12T12:26:00;10.57;;;4.93;;
81908;SDS011;71372;43.514;1.512;2023-08-12T12:28:27;7.93;;;4.75;;
81908;SDS011;71372;43.514;1.512;2023-08-12T12:30:53;9.20;;;5.00;;
81908;SDS011;71372;43.514;1.512;2023-08-12T12:33:19;10.70;;;4.75;;
81908;SDS011;71372;43.514;1.512;2023-08-12T12:35:45;8.95;;;4.63;;
81908;SDS011;71372;43.514;1.512;2023-08-12T12:38:11;10.38;;;4.43;;
81908;SDS011;71372;43.514;1.512;2023-08-12T12:40:37;8.02;;;5.00;;
81908;SDS011;71372;43.514;1.512;2023-08-12T12:43:04;9.10;;;4.70;;
81908;SDS011;71372;43.514;1.512;2023-08-12T12:45:30;7.65;;;5.10;;
81908;SDS011;71372;43.514;1.512;2023-08-12T12:47:56;9.70;;;5.20;;
81908;SDS011;71372;43.514;1.512;2023-08-12T12:50:22;10.18;;;4.90;;
81908;SDS011;71372;43.514;1.512;2023-08-12T12:52:48;10.50;;;4.90;;
81908;SDS011;71372;43.514;1.512;2023-08-12T12:55:14;10.35;;;4.70;;
81908;SDS011;71372;43.514;1.512;2023-08-12T12:57:40;7.68;;;4.70;;
81908;SDS011;71372;43.514;1.512;2023-08-12T13:00:06;9.00;;;5.20;;
81908;SDS011;71372;43.514;1.512;2023-08-12T13:02:37;10.20;;;4.90;;
81908;SDS011;71372;43.514;1.512;2023-08-12T13:05:03;10.13;;;4.47;;
81908;SDS011;71372;43.514;1.512;2023-08-12T13:07:30;7.97;;;4.55;;
81908;SDS011;71372;43.514;1.512;2023-08-12T13:09:56;11.32;;;5.00;;
81908;SDS011;71372;43.514;1.512;2023-08-12T13:12:22;8.98;;;4.75;;
81908;SDS011;71372;43.514;1.512;2023-08-12T13:14:48;9.25;;;4.38;;
81908;SDS011;71372;43.514;1.512;2023-08-12T13:17:14;7.43;;;4.60;;
81908;SDS011;71372;43.514;1.512;2023-08-12T13:19:40;9.70;;;4.40;;
81908;SDS011;71372;43.514;1.512;2023-08-12T13:22:06;8.70;;;4.30;;
81908;SDS011;71372;43.514;1.512;2023-08-12T13:24:32;10.02;;;4.68;;
81908;SDS011;71372;43.514;1.512;2023-08-12T13:26:58;8.70;;;4.22;;
81908;SDS011;71372;43.514;1.512;2023-08-12T13:29:24;7.75;;;4.68;;
81908;SDS011;71372;43.514;1.512;2023-08-12T13:31:51;8.45;;;4.53;;
81908;SDS011;71372;43.514;1.512;2023-08-12T13:34:17;9.07;;;4.35;;
81908;SDS011;71372;43.514;1.512;2023-08-12T13:36:44;8.20;;;4.57;;
81908;SDS011;71372;43.514;1.512;2023-08-12T13:39:10;14.27;;;4.57;;
81908;SDS011;71372;43.514;1.512;2023-08-12T13:41:36;11.63;;;4.25;;
81908;SDS011;71372;43.514;1.512;2023-08-12T13:44:02;7.47;;;4.28;;
81908;SDS011;71372;43.514;1.512;2023-08-12T13:46:31;8.82;;;4.65;;
81908;SDS011;71372;43.514;1.512;2023-08-12T13:48:57;5.50;;;4.32;;
81908;SDS011;71372;43.514;1.512;2023-08-12T13:51:23;7.20;;;4.43;;
81908;SDS011;71372;43.514;1.512;2023-08-12T13:53:49;8.23;;;4.53;;
81908;SDS011;71372;43.514;1.512;2023-08-12T13:56:15;8.15;;;4.18;;
81908;SDS011;71372;43.514;1.512;2023-08-12T14:01:08;7.80;;;4.35;;
81908;SDS011;71372;43.514;1.512;2023-08-12T14:03:34;7.32;;;4.70;;
81908;SDS011;71372;43.514;1.512;2023-08-12T14:06:01;7.70;;;4.30;;
81908;SDS011;71372;43.514;1.512;2023-08-12T14:08:27;7.13;;;4.30;;
81908;SDS011;71372;43.514;1.512;2023-08-12T14:10:53;7.80;;;4.10;;
81908;SDS011;71372;43.514;1.512;2023-08-12T14:13:19;8.45;;;4.35;;
81908;SDS011;71372;43.514;1.512;2023-08-12T14:15:45;7.28;;;4.10;;
81908;SDS011;71372;43.514;1.512;2023-08-12T14:18:11;7.65;;;4.25;;
81908;SDS011;71372;43.514;1.512;2023-08-12T14:20:37;7.10;;;4.25;;
81908;SDS011;71372;43.514;1.512;2023-08-12T14:23:03;8.68;;;4.25;;
81908;SDS011;71372;43.514;1.512;2023-08-12T14:25:29;7.45;;;4.15;;
81908;SDS011;71372;43.514;1.512;2023-08-12T14:27:55;8.93;;;4.22;;
81908;SDS011;71372;43.514;1.512;2023-08-12T14:30:23;10.43;;;4.13;;
81908;SDS011;71372;43.514;1.512;2023-08-12T14:32:51;9.80;;;4.10;;
81908;SDS011;71372;43.514;1.512;2023-08-12T14:35:17;7.38;;;4.30;;
81908;SDS011;71372;43.514;1.512;2023-08-12T14:37:43;8.23;;;4.50;;
81908;SDS011;71372;43.514;1.512;2023-08-12T14:40:09;9.48;;;4.50;;
81908;SDS011;71372;43.514;1.512;2023-08-12T14:42:36;11.60;;;4.82;;
81908;SDS011;71372;43.514;1.512;2023-08-12T14:45:02;6.75;;;3.90;;
81908;SDS011;71372;43.514;1.512;2023-08-12T14:47:28;9.10;;;4.72;;
81908;SDS011;71372;43.514;1.512;2023-08-12T14:49:55;7.88;;;4.03;;
81908;SDS011;71372;43.514;1.512;2023-08-12T14:52:22;8.50;;;4.13;;
81908;SDS011;71372;43.514;1.512;2023-08-12T14:54:48;6.97;;;4.43;;